Time;durP1;ratioP1;P1;durP2;ratioP2;P2;SDS_P1;SDS_P2;PMS_P1;PMS_P2;Temp;Humidity;BMP_temperature;BMP_pressure;BME280_temperature;BME280_humidity;BME280_pressure;Samples;Min_cycle;Max_cycle;Signal;HPM_P1;HPM_P2
2023/12/01 00:01:24;;;;;;;44.07;14.17;;;;;;;;;;4983260;28;20345;-66
2023/12/01 00:03:49;;;;;;;54.47;18.95;;;;;;;;;;4982389;28;20277;-66
2023/12/01 00:06:15;;;;;;;55.03;18.10;;;;;;;;;;4985028;28;20113;-66
2023/12/01 00:08:40;;;;;;;50.40;16.60;;;;;;;;;;4988222;28;20030;-66
2023/12/01 00:11:05;;;;;;;38.40;13.27;;;;;;;;;;4988962;28;20022;-66
2023/12/01 00:13:30;;;;;;;43.30;15.30;;;;;;;;;;4987035;28;20084;-66
2023/12/01 00:15:56;;;;;;;58.08;19.00;;;;;;;;;;4985825;28;20014;-66
2023/12/01 00:18:21;;;;;;;56.50;20.00;;;;;;;;;;4985792;28;20093;-66
2023/12/01 00:20:46;;;;;;;66.43;22.75;;;;;;;;;;4985153;28;20266;-66
2023/12/01 00:23:12;;;;;;;71.87;21.67;;;;;;;;;;4987121;28;20084;-66
2023/12/01 00:25:37;;;;;;;61.67;22.30;;;;;;;;;;4986173;28;20340;-66
2023/12/01 00:28:02;;;;;;;66.38;22.70;;;;;;;;;;4986430;28;20504;-66
2023/12/01 00:30:29;;;;;;;64.00;22.35;;;;;;;;;;4985669;28;20434;-66
2023/12/01 00:32:54;;;;;;;59.13;22.63;;;;;;;;;;4987558;28;20015;-66
2023/12/01 00:35:20;;;;;;;68.00;22.20;;;;;;;;;;4987022;28;20023;-66
2023/12/01 00:37:45;;;;;;;75.17;25.00;;;;;;;;;;4987828;28;20556;-66
2023/12/01 00:40:10;;;;;;;65.25;22.67;;;;;;;;;;4987926;28;20297;-66
2023/12/01 00:42:36;;;;;;;69.22;22.48;;;;;;;;;;4981735;28;20046;-66
2023/12/01 00:45:02;;;;;;;61.33;23.90;;;;;;;;;;4987973;28;20101;-66
2023/12/01 00:47:27;;;;;;;70.80;24.88;;;;;;;;;;4984000;28;20034;-66
2023/12/01 00:49:52;;;;;;;71.35;24.05;;;;;;;;;;4985917;28;20525;-66
2023/12/01 00:52:17;;;;;;;82.40;24.90;;;;;;;;;;4982438;28;20079;-66
2023/12/01 00:54:42;;;;;;;75.63;24.53;;;;;;;;;;4987778;28;20752;-66
2023/12/01 00:57:07;;;;;;;73.87;24.53;;;;;;;;;;4988293;28;20315;-66
2023/12/01 00:59:32;;;;;;;74.13;24.53;;;;;;;;;;4988249;28;20269;-66
2023/12/01 01:01:58;;;;;;;79.78;26.05;;;;;;;;;;4987581;28;20273;-66
2023/12/01 01:04:23;;;;;;;73.05;25.15;;;;;;;;;;4987246;28;20405;-66
2023/12/01 01:06:48;;;;;;;78.32;26.58;;;;;;;;;;4987556;28;20034;-66
2023/12/01 01:09:13;;;;;;;82.55;25.98;;;;;;;;;;4988094;28;20026;-66
2023/12/01 01:11:39;;;;;;;70.32;24.35;;;;;;;;;;4988144;28;20030;-66
2023/12/01 01:14:04;;;;;;;83.00;26.03;;;;;;;;;;4987549;28;20014;-66
2023/12/01 01:16:29;;;;;;;83.37;26.53;;;;;;;;;;4989771;28;20787;-66
2023/12/01 01:18:54;;;;;;;86.87;28.33;;;;;;;;;;4991223;28;20320;-66
2023/12/01 01:21:19;;;;;;;73.87;26.70;;;;;;;;;;4983359;28;20780;-66
2023/12/01 01:23:45;;;;;;;88.90;28.00;;;;;;;;;;4991779;28;20285;-66
2023/12/01 01:26:10;;;;;;;98.00;29.98;;;;;;;;;;4987140;28;20101;-66
2023/12/01 01:28:35;;;;;;;82.90;25.55;;;;;;;;;;4990541;28;20032;-66
2023/12/01 01:31:00;;;;;;;80.25;26.38;;;;;;;;;;4986941;28;20058;-66
2023/12/01 01:33:25;;;;;;;77.57;25.60;;;;;;;;;;4989175;28;20026;-66
2023/12/01 01:35:51;;;;;;;89.82;27.95;;;;;;;;;;4990222;28;20056;-66
2023/12/01 01:38:16;;;;;;;88.53;27.67;;;;;;;;;;4991021;28;20018;-66
2023/12/01 01:40:41;;;;;;;97.00;27.85;;;;;;;;;;4990567;28;20792;-66
2023/12/01 01:43:07;;;;;;;84.30;28.73;;;;;;;;;;4980658;28;20027;-66
2023/12/01 01:45:32;;;;;;;84.20;27.47;;;;;;;;;;4989417;28;20537;-66
2023/12/01 01:47:58;;;;;;;90.75;28.50;;;;;;;;;;4991521;28;20273;-66
2023/12/01 01:50:23;;;;;;;90.13;25.90;;;;;;;;;;4984690;28;20677;-66
2023/12/01 01:52:49;;;;;;;86.18;27.63;;;;;;;;;;4991422;28;20493;-66
2023/12/01 01:55:14;;;;;;;96.03;29.30;;;;;;;;;;4991847;28;20030;-67
2023/12/01 01:57:42;;;;;;;80.82;26.58;;;;;;;;;;4988758;28;20068;-67
2023/12/01 02:00:07;;;;;;;79.28;26.52;;;;;;;;;;4980137;28;20080;-67
2023/12/01 02:02:34;;;;;;;85.15;28.33;;;;;;;;;;4988144;28;20033;-67
2023/12/01 02:05:00;;;;;;;85.68;27.55;;;;;;;;;;4991089;28;20023;-67
2023/12/01 02:07:25;;;;;;;82.93;27.48;;;;;;;;;;4990568;28;20485;-67
2023/12/01 02:09:50;;;;;;;73.53;24.73;;;;;;;;;;4991753;28;20014;-67
2023/12/01 02:12:15;;;;;;;74.75;27.70;;;;;;;;;;4990767;28;20084;-67
2023/12/01 02:17:43;;;;;;;53.63;21.20;;;;;;;;;;4984158;28;20328;-67
2023/12/01 02:20:14;;;;;;;78.73;26.63;;;;;;;;;;4990685;28;20014;-67
2023/12/01 02:22:40;;;;;;;76.70;26.30;;;;;;;;;;4990606;28;20756;-67
2023/12/01 02:25:06;;;;;;;80.82;27.15;;;;;;;;;;4990685;28;20026;-67
2023/12/01 02:27:31;;;;;;;80.00;27.35;;;;;;;;;;4989194;28;20093;-67
2023/12/01 02:29:56;;;;;;;74.60;26.10;;;;;;;;;;4990026;28;20109;-67
2023/12/01 02:32:21;;;;;;;85.22;24.70;;;;;;;;;;4989904;28;20285;-67
2023/12/01 02:34:46;;;;;;;79.40;24.90;;;;;;;;;;4990502;28;20528;-67
2023/12/01 02:37:11;;;;;;;75.15;25.50;;;;;;;;;;4982939;28;20246;-67
2023/12/01 02:39:37;;;;;;;82.82;26.02;;;;;;;;;;4973876;28;20278;-67
2023/12/01 02:42:02;;;;;;;74.15;24.17;;;;;;;;;;4989974;28;20113;-67
2023/12/01 02:44:27;;;;;;;67.38;21.38;;;;;;;;;;4984757;28;20068;-67
2023/12/01 02:46:52;;;;;;;68.73;22.37;;;;;;;;;;4974078;28;20481;-67
2023/12/01 02:49:18;;;;;;;72.13;23.60;;;;;;;;;;4972459;28;20262;-67
2023/12/01 02:51:43;;;;;;;66.22;22.58;;;;;;;;;;4989005;28;20863;-67
2023/12/01 02:54:08;;;;;;;70.80;22.65;;;;;;;;;;4990635;28;20018;-67
2023/12/01 02:56:33;;;;;;;70.30;22.35;;;;;;;;;;4988590;28;20748;-67
2023/12/01 02:58:58;;;;;;;71.93;23.90;;;;;;;;;;4987604;28;20421;-67
2023/12/01 03:01:23;;;;;;;61.13;20.90;;;;;;;;;;4989327;28;20268;-67
2023/12/01 03:03:51;;;;;;;62.05;21.08;;;;;;;;;;4990884;28;20827;-67
2023/12/01 03:06:16;;;;;;;57.35;20.92;;;;;;;;;;4990179;28;20753;-67
2023/12/01 03:08:42;;;;;;;56.42;19.95;;;;;;;;;;4973369;28;20034;-67
2023/12/01 03:11:07;;;;;;;59.20;21.42;;;;;;;;;;4984632;28;20641;-67
2023/12/01 03:13:33;;;;;;;53.78;19.17;;;;;;;;;;4974392;28;20458;-67
2023/12/01 03:15:58;;;;;;;20.02;8.80;;;;;;;;;;4984306;28;20042;-67
2023/12/01 03:18:23;;;;;;;63.28;21.50;;;;;;;;;;4981591;28;20053;-67
2023/12/01 03:20:49;;;;;;;45.58;15.07;;;;;;;;;;4978258;28;20082;-67
2023/12/01 03:23:14;;;;;;;24.50;8.25;;;;;;;;;;4978658;28;20022;-67
2023/12/01 03:25:39;;;;;;;51.33;16.65;;;;;;;;;;4990167;28;20018;-67
2023/12/01 03:28:04;;;;;;;56.83;20.27;;;;;;;;;;4987908;28;20285;-67
2023/12/01 03:30:29;;;;;;;50.73;19.17;;;;;;;;;;4989119;28;20261;-67
2023/12/01 03:32:54;;;;;;;53.37;17.27;;;;;;;;;;4989988;28;20281;-67
2023/12/01 03:35:20;;;;;;;33.25;11.35;;;;;;;;;;4990198;28;20795;-67
2023/12/01 03:37:46;;;;;;;52.58;20.17;;;;;;;;;;4979030;28;20022;-67
2023/12/01 03:40:14;;;;;;;38.88;13.80;;;;;;;;;;4977698;28;20049;-67
2023/12/01 03:42:46;;;;;;;49.40;17.08;;;;;;;;;;4979753;28;20038;-67
2023/12/01 03:45:12;;;;;;;60.72;21.17;;;;;;;;;;4978576;28;20177;-67
2023/12/01 03:47:37;;;;;;;60.45;20.38;;;;;;;;;;4981106;28;20541;-67
2023/12/01 03:50:03;;;;;;;56.22;19.55;;;;;;;;;;4977166;28;20058;-67
2023/12/01 03:52:29;;;;;;;52.03;19.58;;;;;;;;;;4988989;28;20027;-67
2023/12/01 03:54:54;;;;;;;55.03;18.88;;;;;;;;;;4983232;28;20072;-67
2023/12/01 03:57:19;;;;;;;60.83;20.97;;;;;;;;;;4988256;28;20484;-67
2023/12/01 03:59:45;;;;;;;55.65;17.98;;;;;;;;;;4986888;28;20280;-67
2023/12/01 04:02:10;;;;;;;69.28;21.13;;;;;;;;;;4985128;28;20576;-67
2023/12/01 04:04:35;;;;;;;55.28;19.67;;;;;;;;;;4986027;28;20106;-67
2023/12/01 04:07:00;;;;;;;48.78;17.27;;;;;;;;;;4973080;28;20438;-67
2023/12/01 04:09:26;;;;;;;58.40;19.20;;;;;;;;;;4972316;28;20298;-67
2023/12/01 04:11:54;;;;;;;60.72;21.35;;;;;;;;;;4981917;28;20340;-67
2023/12/01 04:14:19;;;;;;;66.05;22.50;;;;;;;;;;4975520;28;20611;-67
2023/12/01 04:16:46;;;;;;;57.35;22.17;;;;;;;;;;4975317;28;20058;-67
2023/12/01 04:19:12;;;;;;;66.50;23.13;;;;;;;;;;4972589;28;20081;-67
2023/12/01 04:21:37;;;;;;;53.30;20.38;;;;;;;;;;4985205;28;20030;-67
2023/12/01 04:24:02;;;;;;;60.20;22.33;;;;;;;;;;4984598;28;20768;-67
2023/12/01 04:26:28;;;;;;;58.35;20.80;;;;;;;;;;4972776;28;20258;-67
2023/12/01 04:28:53;;;;;;;55.42;21.67;;;;;;;;;;4973452;28;20074;-67
2023/12/01 04:31:19;;;;;;;54.63;20.38;;;;;;;;;;4984027;28;20022;-67
2023/12/01 04:33:44;;;;;;;58.33;21.58;;;;;;;;;;4985891;28;20106;-67
2023/12/01 04:36:11;;;;;;;53.77;18.67;;;;;;;;;;4987338;28;20026;-67
2023/12/01 04:38:36;;;;;;;46.70;17.00;;;;;;;;;;4979643;28;20403;-67
2023/12/01 04:41:02;;;;;;;58.20;19.03;;;;;;;;;;4982921;28;20101;-67
2023/12/01 04:43:28;;;;;;;49.42;18.27;;;;;;;;;;4986274;28;20272;-67
2023/12/01 04:45:53;;;;;;;42.05;17.35;;;;;;;;;;4986396;28;20105;-67
2023/12/01 04:48:18;;;;;;;44.05;17.50;;;;;;;;;;4976319;28;20026;-67
2023/12/01 04:50:47;;;;;;;44.20;16.23;;;;;;;;;;4983900;28;20269;-67
2023/12/01 04:53:12;;;;;;;44.03;17.20;;;;;;;;;;4981939;28;20050;-67
2023/12/01 04:55:38;;;;;;;49.58;15.75;;;;;;;;;;4989383;28;20062;-67
2023/12/01 04:58:03;;;;;;;40.78;15.80;;;;;;;;;;4986760;28;20097;-67
2023/12/01 05:00:28;;;;;;;44.50;16.58;;;;;;;;;;4980166;28;20548;-67
2023/12/01 05:02:54;;;;;;;46.22;16.83;;;;;;;;;;4986803;28;20050;-67
2023/12/01 05:05:24;;;;;;;37.47;15.30;;;;;;;;;;4976484;28;20422;-67
2023/12/01 05:07:51;;;;;;;41.03;16.23;;;;;;;;;;4988067;28;20026;-67
2023/12/01 05:10:17;;;;;;;41.65;17.65;;;;;;;;;;4985254;28;20118;-67
2023/12/01 05:12:43;;;;;;;44.35;17.95;;;;;;;;;;4989186;28;20113;-67
2023/12/01 05:15:15;;;;;;;45.28;17.35;;;;;;;;;;4990484;28;20015;-67
2023/12/01 05:17:40;;;;;;;40.65;15.43;;;;;;;;;;4986854;28;20512;-67
2023/12/01 05:20:15;;;;;;;43.90;16.88;;;;;;;;;;4988338;28;20027;-67
2023/12/01 05:22:40;;;;;;;42.38;15.43;;;;;;;;;;4987110;28;20026;-67
2023/12/01 05:25:05;;;;;;;45.60;15.95;;;;;;;;;;4988582;28;20022;-67
2023/12/01 05:27:31;;;;;;;42.45;17.00;;;;;;;;;;4986320;28;20025;-67
2023/12/01 05:29:56;;;;;;;45.13;16.20;;;;;;;;;;4985271;28;20390;-67
2023/12/01 05:32:21;;;;;;;42.75;16.40;;;;;;;;;;4982696;28;20054;-67
2023/12/01 05:34:46;;;;;;;47.92;16.90;;;;;;;;;;4976825;28;20010;-67
2023/12/01 05:37:12;;;;;;;39.97;15.88;;;;;;;;;;4985112;28;20033;-67
2023/12/01 05:39:37;;;;;;;45.60;16.92;;;;;;;;;;4987845;28;20028;-67
2023/12/01 05:42:04;;;;;;;42.33;15.88;;;;;;;;;;4980927;28;20066;-67
2023/12/01 05:44:30;;;;;;;47.28;17.63;;;;;;;;;;4987311;28;20770;-67
2023/12/01 05:46:55;;;;;;;42.10;15.07;;;;;;;;;;4977452;28;20097;-67
2023/12/01 05:49:20;;;;;;;47.43;16.73;;;;;;;;;;4985905;28;20019;-67
2023/12/01 05:51:47;;;;;;;41.25;16.80;;;;;;;;;;4981611;28;20787;-67
2023/12/01 05:54:12;;;;;;;44.58;16.05;;;;;;;;;;4986181;28;20745;-67
2023/12/01 05:56:37;;;;;;;41.28;16.05;;;;;;;;;;4988006;28;20026;-67
2023/12/01 05:59:04;;;;;;;35.93;12.80;;;;;;;;;;4982639;28;20045;-67
2023/12/01 06:01:29;;;;;;;39.83;14.73;;;;;;;;;;4989506;28;20293;-67
2023/12/01 06:03:55;;;;;;;36.47;12.40;;;;;;;;;;4990907;28;20054;-67
2023/12/01 06:06:20;;;;;;;35.53;12.77;;;;;;;;;;4988460;28;20262;-67
2023/12/01 06:08:45;;;;;;;38.10;13.00;;;;;;;;;;4988252;28;20257;-67
2023/12/01 06:11:10;;;;;;;36.08;13.20;;;;;;;;;;4986357;28;20393;-67
2023/12/01 06:13:35;;;;;;;33.45;12.23;;;;;;;;;;4985551;28;20288;-67
2023/12/01 06:16:00;;;;;;;37.67;12.85;;;;;;;;;;4980579;28;20130;-67
2023/12/01 06:18:29;;;;;;;29.13;12.25;;;;;;;;;;4988041;28;20397;-67
2023/12/01 06:20:54;;;;;;;31.48;12.45;;;;;;;;;;4983632;28;20018;-67
2023/12/01 06:23:20;;;;;;;29.70;11.10;;;;;;;;;;4972467;28;20027;-67
2023/12/01 06:25:46;;;;;;;23.20;10.90;;;;;;;;;;4984433;28;20061;-67
2023/12/01 06:28:11;;;;;;;33.40;11.75;;;;;;;;;;4974516;28;20643;-67
2023/12/01 06:30:37;;;;;;;26.97;9.83;;;;;;;;;;4985709;28;20110;-67
2023/12/01 06:33:02;;;;;;;28.17;10.63;;;;;;;;;;4984828;28;20290;-67
2023/12/01 06:35:28;;;;;;;31.25;11.32;;;;;;;;;;4983857;28;20067;-67
2023/12/01 06:37:53;;;;;;;21.65;8.30;;;;;;;;;;4978524;28;20037;-67
2023/12/01 06:40:20;;;;;;;20.58;8.35;;;;;;;;;;4984417;28;20718;-67
2023/12/01 06:42:46;;;;;;;21.02;9.10;;;;;;;;;;4978235;28;20072;-67
2023/12/01 06:45:12;;;;;;;22.80;8.40;;;;;;;;;;4978557;28;20164;-67
2023/12/01 06:47:38;;;;;;;22.85;9.15;;;;;;;;;;4984317;28;20497;-67
2023/12/01 06:50:03;;;;;;;21.63;9.70;;;;;;;;;;4982844;28;20034;-67
2023/12/01 06:52:28;;;;;;;23.30;9.85;;;;;;;;;;4978493;28;20041;-67
2023/12/01 06:54:54;;;;;;;20.90;9.15;;;;;;;;;;4975890;28;20371;-67
2023/12/01 06:57:19;;;;;;;25.80;10.65;;;;;;;;;;4986112;28;20030;-67
2023/12/01 06:59:44;;;;;;;26.87;9.83;;;;;;;;;;4966754;28;20129;-67
2023/12/01 07:02:09;;;;;;;20.30;8.32;;;;;;;;;;4984662;28;20261;-67
2023/12/01 07:04:34;;;;;;;28.90;11.27;;;;;;;;;;4976956;28;20031;-67
2023/12/01 07:07:00;;;;;;;41.28;12.90;;;;;;;;;;4987240;28;20102;-67
2023/12/01 07:09:26;;;;;;;34.40;12.77;;;;;;;;;;4989173;28;20268;-67
2023/12/01 07:11:52;;;;;;;36.28;14.65;;;;;;;;;;4984609;28;20034;-67
2023/12/01 07:14:18;;;;;;;38.30;14.77;;;;;;;;;;4975849;28;20019;-67
2023/12/01 07:16:43;;;;;;;39.10;13.57;;;;;;;;;;4986962;28;20034;-67
2023/12/01 07:19:10;;;;;;;35.20;12.95;;;;;;;;;;4987619;28;20145;-67
2023/12/01 07:21:35;;;;;;;32.35;12.27;;;;;;;;;;4982408;28;20077;-67
2023/12/01 07:24:02;;;;;;;22.35;8.82;;;;;;;;;;4981123;28;20494;-67
2023/12/01 07:26:27;;;;;;;26.33;9.70;;;;;;;;;;4980230;28;20018;-67
2023/12/01 07:28:52;;;;;;;29.83;11.40;;;;;;;;;;4984906;28;20555;-67
2023/12/01 07:31:18;;;;;;;25.33;9.27;;;;;;;;;;4979178;28;20031;-67
2023/12/01 07:33:43;;;;;;;25.70;9.43;;;;;;;;;;4979870;28;20022;-68
2023/12/01 07:36:09;;;;;;;30.87;9.47;;;;;;;;;;4980474;28;20498;-68
2023/12/01 07:38:34;;;;;;;24.45;8.88;;;;;;;;;;4986671;28;20884;-68
2023/12/01 07:40:59;;;;;;;19.02;8.15;;;;;;;;;;4988060;28;20109;-68
2023/12/01 07:43:25;;;;;;;18.30;6.68;;;;;;;;;;4987287;28;20045;-68
2023/12/01 07:45:50;;;;;;;21.00;8.77;;;;;;;;;;4981768;28;20261;-68
2023/12/01 07:48:15;;;;;;;20.77;8.70;;;;;;;;;;4984537;28;20053;-68
2023/12/01 07:50:40;;;;;;;19.45;8.23;;;;;;;;;;4981427;28;20290;-68
2023/12/01 07:53:05;;;;;;;17.63;7.75;;;;;;;;;;4981488;28;20026;-68
2023/12/01 07:55:31;;;;;;;24.10;8.77;;;;;;;;;;4988171;28;20496;-68
2023/12/01 07:57:56;;;;;;;20.02;8.38;;;;;;;;;;4986155;28;20262;-68
2023/12/01 08:00:21;;;;;;;18.88;8.15;;;;;;;;;;4977733;28;20102;-68
2023/12/01 08:02:47;;;;;;;20.90;8.18;;;;;;;;;;4985726;28;20281;-68
2023/12/01 08:05:16;;;;;;;21.20;8.13;;;;;;;;;;4986474;28;20532;-68
2023/12/01 08:07:41;;;;;;;18.85;7.85;;;;;;;;;;4984864;28;20059;-68
2023/12/01 08:10:07;;;;;;;16.90;7.18;;;;;;;;;;4983736;28;20103;-68
2023/12/01 08:12:33;;;;;;;19.70;7.55;;;;;;;;;;4982578;28;20481;-68
2023/12/01 08:14:58;;;;;;;14.52;5.97;;;;;;;;;;4983521;28;20390;-68
2023/12/01 08:17:24;;;;;;;23.60;6.95;;;;;;;;;;4978700;28;20019;-68
2023/12/01 08:19:49;;;;;;;21.20;7.68;;;;;;;;;;4985611;28;20030;-68
2023/12/01 08:22:14;;;;;;;20.43;7.27;;;;;;;;;;4979607;28;20026;-68
2023/12/01 08:24:39;;;;;;;20.67;8.17;;;;;;;;;;4988732;28;20265;-68
2023/12/01 08:27:05;;;;;;;16.30;7.25;;;;;;;;;;4986562;28;20278;-68
2023/12/01 08:29:30;;;;;;;21.98;8.50;;;;;;;;;;4988830;28;20068;-68
2023/12/01 08:31:55;;;;;;;15.20;7.03;;;;;;;;;;4983523;28;20081;-68
2023/12/01 08:34:20;;;;;;;19.40;7.10;;;;;;;;;;4986036;28;20269;-68
2023/12/01 08:36:45;;;;;;;20.07;7.50;;;;;;;;;;4987745;28;20165;-68
2023/12/01 08:39:12;;;;;;;22.13;8.25;;;;;;;;;;4989299;28;20270;-68
2023/12/01 08:41:37;;;;;;;21.85;8.15;;;;;;;;;;4981510;28;20033;-68
2023/12/01 08:44:03;;;;;;;20.33;7.20;;;;;;;;;;4984974;28;20035;-68
2023/12/01 08:46:28;;;;;;;20.83;6.63;;;;;;;;;;4982520;28;20022;-68
2023/12/01 08:48:53;;;;;;;19.17;7.27;;;;;;;;;;4981395;28;20034;-68
2023/12/01 08:51:18;;;;;;;22.70;7.63;;;;;;;;;;4982068;28;20286;-68
2023/12/01 08:53:43;;;;;;;19.67;6.93;;;;;;;;;;4985166;28;20461;-68
2023/12/01 08:56:09;;;;;;;24.63;9.40;;;;;;;;;;4986734;28;20294;-68
2023/12/01 08:58:35;;;;;;;22.10;9.27;;;;;;;;;;4986043;28;20022;-68
2023/12/01 09:01:00;;;;;;;23.40;8.40;;;;;;;;;;4983577;28;20023;-68
2023/12/01 09:03:25;;;;;;;27.05;8.95;;;;;;;;;;4982906;28;20096;-68
2023/12/01 09:05:50;;;;;;;29.67;9.87;;;;;;;;;;4988815;28;20034;-68
2023/12/01 09:08:16;;;;;;;28.33;9.75;;;;;;;;;;4990454;28;20341;-68
2023/12/01 09:10:41;;;;;;;29.00;10.43;;;;;;;;;;4986237;28;20029;-68
2023/12/01 09:13:06;;;;;;;22.35;6.65;;;;;;;;;;4984314;28;20470;-68
2023/12/01 09:15:31;;;;;;;26.97;8.67;;;;;;;;;;4985895;28;20058;-68
2023/12/01 09:17:56;;;;;;;22.83;9.50;;;;;;;;;;4989161;28;20257;-68
2023/12/01 09:20:22;;;;;;;23.50;10.27;;;;;;;;;;4984633;28;20270;-68
2023/12/01 09:22:47;;;;;;;24.55;9.43;;;;;;;;;;4989376;28;20022;-68
2023/12/01 09:25:12;;;;;;;21.33;10.32;;;;;;;;;;4983394;28;20121;-68
2023/12/01 09:27:37;;;;;;;25.65;9.18;;;;;;;;;;4988873;28;20374;-68
2023/12/01 09:30:03;;;;;;;22.48;9.30;;;;;;;;;;4988222;28;20478;-68
2023/12/01 09:32:29;;;;;;;21.55;8.07;;;;;;;;;;4984385;28;20014;-68
2023/12/01 09:34:54;;;;;;;14.35;7.15;;;;;;;;;;4984128;28;20073;-68
2023/12/01 09:37:19;;;;;;;20.53;7.47;;;;;;;;;;4984493;28;20018;-68
2023/12/01 09:39:44;;;;;;;21.55;8.82;;;;;;;;;;4979946;28;20337;-68
2023/12/01 09:42:09;;;;;;;13.07;5.50;;;;;;;;;;4987851;28;20034;-68
2023/12/01 09:44:35;;;;;;;24.88;9.32;;;;;;;;;;4984590;28;20281;-68
2023/12/01 09:47:03;;;;;;;23.90;8.00;;;;;;;;;;4984068;28;20105;-68
2023/12/01 09:49:32;;;;;;;18.90;7.45;;;;;;;;;;4980919;28;20107;-68
2023/12/01 09:51:57;;;;;;;15.25;6.72;;;;;;;;;;4985498;28;20045;-68
2023/12/01 09:54:22;;;;;;;14.23;5.93;;;;;;;;;;4982912;28;20019;-68
2023/12/01 09:56:47;;;;;;;13.35;5.28;;;;;;;;;;4985628;28;20436;-68
2023/12/01 09:59:16;;;;;;;14.60;6.10;;;;;;;;;;4985529;28;20022;-68
2023/12/01 10:01:41;;;;;;;20.55;5.88;;;;;;;;;;4985306;28;20264;-68
2023/12/01 10:04:06;;;;;;;12.65;5.30;;;;;;;;;;4981155;28;20022;-68
2023/12/01 10:06:31;;;;;;;11.75;4.65;;;;;;;;;;4984127;28;20397;-68
2023/12/01 10:08:56;;;;;;;12.03;5.00;;;;;;;;;;4983674;28;20018;-68
2023/12/01 10:11:22;;;;;;;11.32;4.50;;;;;;;;;;4984045;28;20803;-68
2023/12/01 10:13:49;;;;;;;9.27;4.45;;;;;;;;;;4981981;28;20014;-68
2023/12/01 10:16:15;;;;;;;11.70;4.65;;;;;;;;;;4988411;28;20014;-68
2023/12/01 10:18:55;;;;;;;8.30;4.30;;;;;;;;;;4980643;28;20465;-68
2023/12/01 10:21:20;;;;;;;8.33;4.10;;;;;;;;;;4985558;28;20034;-68
2023/12/01 10:23:45;;;;;;;9.10;4.67;;;;;;;;;;4984605;28;20031;-68
2023/12/01 10:26:11;;;;;;;9.10;4.57;;;;;;;;;;4988467;28;20289;-68
2023/12/01 10:28:41;;;;;;;9.65;4.00;;;;;;;;;;4986040;28;20352;-68
2023/12/01 10:31:07;;;;;;;11.65;4.57;;;;;;;;;;4983012;28;20573;-68
2023/12/01 10:33:33;;;;;;;7.97;3.95;;;;;;;;;;4988291;28;20027;-68
2023/12/01 10:36:01;;;;;;;2.85;1.02;;;;;;;;;;4980471;28;20018;-68
2023/12/01 10:38:26;;;;;;;12.07;4.75;;;;;;;;;;4982208;28;20032;-68
2023/12/01 10:40:52;;;;;;;12.80;4.80;;;;;;;;;;4987204;28;20022;-68
2023/12/01 10:43:19;;;;;;;11.13;4.50;;;;;;;;;;4987753;28;20393;-68
2023/12/01 10:45:44;;;;;;;9.63;4.25;;;;;;;;;;4984077;28;20081;-68
2023/12/01 10:48:10;;;;;;;9.00;4.40;;;;;;;;;;4985473;28;20477;-68
2023/12/01 10:50:36;;;;;;;3.72;1.50;;;;;;;;;;4986921;28;20080;-68
2023/12/01 10:53:02;;;;;;;9.07;4.43;;;;;;;;;;4984141;28;20069;-68
2023/12/01 10:55:27;;;;;;;14.23;5.40;;;;;;;;;;4984414;28;20021;-68
2023/12/01 10:57:53;;;;;;;11.75;5.05;;;;;;;;;;4982710;28;20101;-68
2023/12/01 11:00:30;;;;;;;10.25;4.90;;;;;;;;;;4984413;28;20129;-68
2023/12/01 11:02:58;;;;;;;15.57;5.38;;;;;;;;;;4979286;28;20033;-68
2023/12/01 11:05:24;;;;;;;11.88;4.70;;;;;;;;;;4985564;28;20026;-68
2023/12/01 11:08:07;;;;;;;14.73;5.63;;;;;;;;;;4980998;28;20022;-68
2023/12/01 11:10:42;;;;;;;13.50;5.50;;;;;;;;;;4982098;28;20092;-68
2023/12/01 11:13:16;;;;;;;13.15;5.60;;;;;;;;;;4984100;28;20026;-68
2023/12/01 11:15:43;;;;;;;20.95;6.82;;;;;;;;;;4986312;28;20109;-68
2023/12/01 11:18:08;;;;;;;13.52;6.03;;;;;;;;;;4984403;28;20050;-68
2023/12/01 11:20:34;;;;;;;15.32;6.53;;;;;;;;;;4986148;28;20796;-68
2023/12/01 11:23:03;;;;;;;17.10;6.85;;;;;;;;;;4986228;28;20019;-68
2023/12/01 11:25:46;;;;;;;14.43;6.80;;;;;;;;;;4979581;28;20117;-68
2023/12/01 11:28:43;;;;;;;15.48;7.55;;;;;;;;;;4983260;28;20041;-68
2023/12/01 11:31:15;;;;;;;15.10;5.65;;;;;;;;;;4978800;28;20023;-68
2023/12/01 11:33:46;;;;;;;16.90;6.95;;;;;;;;;;4977497;28;20034;-68
2023/12/01 11:36:31;;;;;;;4.63;1.55;;;;;;;;;;4984489;28;20147;-68
2023/12/01 11:39:16;;;;;;;16.15;6.45;;;;;;;;;;4983291;28;20027;-69
2023/12/01 11:41:41;;;;;;;18.48;7.32;;;;;;;;;;4981136;28;20751;-68
2023/12/01 11:44:10;;;;;;;14.25;6.85;;;;;;;;;;4985303;28;20031;-68
2023/12/01 11:46:36;;;;;;;18.50;7.25;;;;;;;;;;4987017;28;20262;-68
2023/12/01 11:49:02;;;;;;;15.93;7.38;;;;;;;;;;4977715;28;20026;-68
2023/12/01 11:51:27;;;;;;;13.30;6.97;;;;;;;;;;4984771;28;20030;-68
2023/12/01 11:53:59;;;;;;;13.93;6.67;;;;;;;;;;4983971;28;20271;-68
2023/12/01 11:56:27;;;;;;;14.82;6.55;;;;;;;;;;4967054;28;20297;-68
2023/12/01 11:58:53;;;;;;;6.50;3.45;;;;;;;;;;4981609;28;20405;-68
2023/12/01 12:01:22;;;;;;;16.88;7.47;;;;;;;;;;4979701;28;20014;-68
2023/12/01 12:03:57;;;;;;;21.17;7.90;;;;;;;;;;4980168;28;20381;-68
2023/12/01 12:06:23;;;;;;;17.63;7.00;;;;;;;;;;4983394;28;20053;-68
2023/12/01 12:08:50;;;;;;;17.95;7.32;;;;;;;;;;4980313;28;20021;-68
2023/12/01 12:11:16;;;;;;;18.13;8.20;;;;;;;;;;4986787;28;20018;-68
2023/12/01 12:13:41;;;;;;;18.50;7.47;;;;;;;;;;4985347;28;20488;-68
2023/12/01 12:16:07;;;;;;;19.33;7.45;;;;;;;;;;4984605;28;20034;-68
2023/12/01 12:18:33;;;;;;;14.93;7.38;;;;;;;;;;4984875;28;20026;-68
2023/12/01 12:21:02;;;;;;;19.00;7.88;;;;;;;;;;4985855;28;20031;-68
2023/12/01 12:23:27;;;;;;;17.17;7.72;;;;;;;;;;4986450;28;20034;-68
2023/12/01 12:25:52;;;;;;;19.45;7.97;;;;;;;;;;4984491;28;20041;-68
2023/12/01 12:28:19;;;;;;;20.25;7.03;;;;;;;;;;4979673;28;20107;-68
2023/12/01 12:30:44;;;;;;;20.83;8.43;;;;;;;;;;4981858;28;21539;-68
2023/12/01 12:33:09;;;;;;;19.27;7.75;;;;;;;;;;4981057;28;20109;-68
2023/12/01 12:35:35;;;;;;;22.00;8.13;;;;;;;;;;4980688;28;20466;-68
2023/12/01 12:38:00;;;;;;;21.70;7.47;;;;;;;;;;4982114;28;20023;-68
2023/12/01 12:40:25;;;;;;;20.20;9.38;;;;;;;;;;4986645;28;20421;-68
2023/12/01 12:42:54;;;;;;;18.65;8.18;;;;;;;;;;4969074;28;21642;-68
2023/12/01 12:45:19;;;;;;;24.63;8.30;;;;;;;;;;4979852;28;20029;-68
2023/12/01 12:47:45;;;;;;;21.50;8.20;;;;;;;;;;4977459;28;20109;-68
2023/12/01 12:50:13;;;;;;;24.58;8.18;;;;;;;;;;4986839;28;20050;-68
2023/12/01 12:52:38;;;;;;;21.77;8.50;;;;;;;;;;4984413;28;20030;-68
2023/12/01 12:55:04;;;;;;;21.80;7.70;;;;;;;;;;4981557;28;20011;-68
2023/12/01 12:57:29;;;;;;;23.00;8.45;;;;;;;;;;4983759;28;20027;-69
2023/12/01 12:59:55;;;;;;;21.27;8.48;;;;;;;;;;4980012;28;20026;-69
2023/12/01 13:02:20;;;;;;;24.25;8.32;;;;;;;;;;4984543;28;20029;-69
2023/12/01 13:04:45;;;;;;;19.73;7.53;;;;;;;;;;4986754;28;20397;-69
2023/12/01 13:07:10;;;;;;;20.85;7.07;;;;;;;;;;4980692;28;20117;-69
2023/12/01 13:09:37;;;;;;;24.13;7.97;;;;;;;;;;4986578;28;20034;-69
2023/12/01 13:12:03;;;;;;;22.50;8.52;;;;;;;;;;4987643;28;20023;-69
2023/12/01 13:14:28;;;;;;;18.45;8.13;;;;;;;;;;4982855;28;20091;-69
2023/12/01 13:16:53;;;;;;;23.87;9.43;;;;;;;;;;4987396;28;20491;-69
2023/12/01 13:19:18;;;;;;;21.23;8.30;;;;;;;;;;4992429;28;20264;-69
2023/12/01 13:21:43;;;;;;;23.05;8.20;;;;;;;;;;4989330;28;20041;-69
2023/12/01 13:24:09;;;;;;;16.33;7.97;;;;;;;;;;4991400;28;20061;-69
2023/12/01 13:26:34;;;;;;;25.50;7.78;;;;;;;;;;4987723;28;20281;-69
2023/12/01 13:28:59;;;;;;;19.00;7.75;;;;;;;;;;4987641;28;20109;-69
2023/12/01 13:31:25;;;;;;;21.98;9.10;;;;;;;;;;4981345;28;20038;-68
2023/12/01 13:33:50;;;;;;;21.15;8.65;;;;;;;;;;4983224;28;20033;-68
2023/12/01 13:36:15;;;;;;;33.15;11.98;;;;;;;;;;4986850;28;20062;-68
2023/12/01 13:38:40;;;;;;;24.75;9.20;;;;;;;;;;4984777;28;20058;-68
2023/12/01 13:41:07;;;;;;;26.80;9.37;;;;;;;;;;4987501;28;20058;-69
2023/12/01 13:43:32;;;;;;;23.15;9.35;;;;;;;;;;4989390;28;20888;-69
2023/12/01 13:45:58;;;;;;;31.27;10.68;;;;;;;;;;4984420;28;20098;-69
2023/12/01 13:48:23;;;;;;;23.73;9.30;;;;;;;;;;4987919;28;20025;-69
2023/12/01 13:50:48;;;;;;;23.73;9.68;;;;;;;;;;4984445;28;20520;-69
2023/12/01 13:53:13;;;;;;;26.75;10.15;;;;;;;;;;4986227;28;20426;-69
2023/12/01 13:55:39;;;;;;;30.80;10.20;;;;;;;;;;4988200;28;20029;-69
2023/12/01 13:58:04;;;;;;;29.00;9.98;;;;;;;;;;4981966;28;20030;-69
2023/12/01 14:00:29;;;;;;;32.07;10.53;;;;;;;;;;4985654;28;20101;-69
2023/12/01 14:02:54;;;;;;;37.17;12.18;;;;;;;;;;4982926;28;20636;-69
2023/12/01 14:05:19;;;;;;;30.73;11.07;;;;;;;;;;4979533;28;20023;-69
2023/12/01 14:07:45;;;;;;;28.80;10.90;;;;;;;;;;4980862;28;20269;-69
2023/12/01 14:10:13;;;;;;;36.08;10.82;;;;;;;;;;4984515;28;20023;-69
2023/12/01 14:12:39;;;;;;;27.25;11.00;;;;;;;;;;4987681;28;20037;-69
2023/12/01 14:15:06;;;;;;;32.90;10.85;;;;;;;;;;4984698;28;20077;-69
2023/12/01 14:17:31;;;;;;;32.33;11.55;;;;;;;;;;4983689;28;20014;-69
2023/12/01 14:19:56;;;;;;;30.23;11.52;;;;;;;;;;4986043;28;20022;-69